Time;durP1;ratioP1;P1;durP2;ratioP2;P2;SDS_P1;SDS_P2;PMS_P1;PMS_P2;Temp;Humidity;BMP_temperature;BMP_pressure;BME280_temperature;BME280_humidity;BME280_pressure;Samples;Min_cycle;Max_cycle;Signal;HPM_P1;HPM_P2
2023/04/13 00:00:10;;;;;;;6.65;4.63;;;11.60;99.90;;;;;;5034627;28;20061;-72
2023/04/13 00:02:38;;;;;;;6.38;3.85;;;11.70;99.90;;;;;;5014223;28;20045;-71
2023/04/13 00:05:09;;;;;;;5.35;4.25;;;11.60;99.90;;;;;;5025264;28;20084;-70
2023/04/13 00:07:38;;;;;;;7.05;4.63;;;11.60;99.90;;;;;;5016887;28;20029;-71
2023/04/13 00:10:08;;;;;;;6.78;4.30;;;11.60;99.90;;;;;;5025093;28;20083;-72
2023/04/13 00:12:35;;;;;;;6.55;5.18;;;11.50;99.90;;;;;;5018825;28;20029;-72
2023/04/13 00:15:02;;;;;;;6.15;3.92;;;11.50;99.90;;;;;;5012158;28;20033;-71
2023/04/13 00:17:28;;;;;;;6.68;4.85;;;11.50;99.90;;;;;;5023414;28;20413;-72
2023/04/13 00:19:56;;;;;;;6.72;5.07;;;11.50;99.90;;;;;;5029487;28;20036;-71
2023/04/13 00:22:29;;;;;;;8.55;4.63;;;11.50;99.90;;;;;;5022990;28;20064;-71
2023/04/13 00:24:56;;;;;;;6.30;5.15;;;11.50;99.90;;;;;;5014187;28;20025;-71
2023/04/13 00:27:25;;;;;;;6.85;5.47;;;11.40;99.90;;;;;;5022249;28;20440;-71
2023/04/13 00:29:51;;;;;;;6.07;5.00;;;11.40;99.90;;;;;;5033403;28;20081;-71
2023/04/13 00:32:16;;;;;;;6.15;5.10;;;11.40;99.90;;;;;;5022679;28;20516;-71
2023/04/13 00:34:43;;;;;;;6.60;5.18;;;11.40;99.90;;;;;;5013201;28;20029;-71
2023/04/13 00:37:10;;;;;;;7.53;4.90;;;11.30;99.90;;;;;;5037001;28;20046;-71
2023/04/13 00:39:36;;;;;;;7.15;5.13;;;11.30;99.90;;;;;;5029534;28;20030;-72
2023/04/13 00:42:02;;;;;;;6.68;5.13;;;11.30;99.90;;;;;;5018742;28;20034;-71
2023/04/13 00:44:29;;;;;;;7.60;5.25;;;11.30;99.90;;;;;;5011793;28;20034;-71
2023/04/13 00:46:55;;;;;;;7.97;5.53;;;11.30;99.90;;;;;;5026175;28;20034;-71
2023/04/13 00:49:21;;;;;;;6.20;5.30;;;11.20;99.90;;;;;;5013413;28;20052;-71
2023/04/13 00:51:47;;;;;;;7.22;5.47;;;11.20;99.90;;;;;;5025808;28;20033;-71
2023/04/13 00:54:15;;;;;;;6.47;5.40;;;11.10;99.90;;;;;;5020578;28;20017;-71
2023/04/13 00:56:41;;;;;;;7.25;5.95;;;11.10;99.90;;;;;;5038319;28;20038;-71
2023/04/13 00:59:11;;;;;;;8.55;5.78;;;11.00;99.90;;;;;;5026368;28;20476;-71
2023/04/13 01:01:49;;;;;;;8.98;6.00;;;11.10;99.90;;;;;;5040722;28;20033;-71
2023/04/13 01:04:18;;;;;;;6.57;5.30;;;11.00;99.90;;;;;;5022393;28;20423;-71
2023/04/13 01:06:51;;;;;;;8.45;5.38;;;11.00;99.90;;;;;;5022361;28;20037;-71
2023/04/13 01:09:27;;;;;;;9.15;5.68;;;11.00;99.90;;;;;;5018339;28;20029;-71
2023/04/13 01:11:55;;;;;;;7.22;6.07;;;10.90;99.90;;;;;;5017715;28;20029;-72
2023/04/13 01:14:37;;;;;;;8.90;5.93;;;11.00;99.90;;;;;;5024247;28;20435;-71
2023/04/13 01:17:09;;;;;;;8.77;5.88;;;10.90;99.90;;;;;;5009907;28;20038;-73
2023/04/13 01:19:39;;;;;;;9.15;5.88;;;11.00;99.90;;;;;;5023549;28;20033;-72
2023/04/13 01:22:06;;;;;;;7.43;5.97;;;10.90;99.90;;;;;;5014737;28;20030;-72
2023/04/13 01:24:41;;;;;;;8.57;6.20;;;11.00;99.90;;;;;;5029557;28;20079;-72
2023/04/13 01:27:21;;;;;;;7.65;5.90;;;11.00;99.90;;;;;;5012259;28;20030;-72
2023/04/13 01:29:48;;;;;;;7.75;6.00;;;11.00;99.90;;;;;;5030044;28;20512;-73
2023/04/13 01:32:16;;;;;;;7.32;5.90;;;10.90;99.90;;;;;;5016506;28;20068;-73
2023/04/13 01:34:41;;;;;;;8.52;5.38;;;10.90;99.90;;;;;;5029622;28;20477;-73
2023/04/13 01:37:08;;;;;;;10.55;6.47;;;10.90;99.90;;;;;;5023508;28;20038;-72
2023/04/13 01:39:36;;;;;;;7.45;5.55;;;10.80;99.90;;;;;;5015699;28;20093;-73
2023/04/13 01:42:02;;;;;;;8.75;5.88;;;10.90;99.90;;;;;;5013810;28;20486;-73
2023/04/13 01:44:31;;;;;;;7.50;6.20;;;10.80;99.90;;;;;;5020990;28;20030;-73
2023/04/13 01:47:14;;;;;;;8.90;6.38;;;10.80;99.90;;;;;;5022128;28;20710;-73
2023/04/13 01:49:47;;;;;;;7.00;5.60;;;10.80;99.90;;;;;;5011350;28;20041;-73
2023/04/13 01:52:14;;;;;;;7.60;6.43;;;10.80;99.90;;;;;;5010625;28;20072;-73
2023/04/13 01:54:42;;;;;;;8.23;6.82;;;10.80;99.90;;;;;;5019554;28;20029;-71
2023/04/13 01:57:09;;;;;;;7.53;6.10;;;10.70;99.90;;;;;;5018642;28;20029;-71
2023/04/13 01:59:35;;;;;;;8.95;6.45;;;10.80;99.90;;;;;;5017430;28;20077;-72
2023/04/13 02:02:01;;;;;;;8.15;6.25;;;10.70;99.90;;;;;;5023693;28;20525;-71
2023/04/13 02:04:28;;;;;;;9.55;6.45;;;10.70;99.90;;;;;;5020289;28;20038;-72
2023/04/13 02:06:53;;;;;;;9.82;6.38;;;10.70;99.90;;;;;;5027878;28;20030;-73
2023/04/13 02:09:19;;;;;;;9.35;5.95;;;10.70;99.90;;;;;;5031528;28;20033;-71
2023/04/13 02:11:45;;;;;;;8.27;5.85;;;10.70;99.90;;;;;;5019769;28;20432;-73
2023/04/13 02:14:10;;;;;;;10.32;6.80;;;10.60;99.90;;;;;;5023754;28;20030;-74
2023/04/13 02:16:36;;;;;;;8.93;6.60;;;10.60;99.90;;;;;;5036733;28;20148;-74
2023/04/13 02:19:01;;;;;;;6.63;5.50;;;10.60;99.90;;;;;;5035021;28;20020;-74
2023/04/13 02:21:27;;;;;;;8.27;6.43;;;10.60;99.90;;;;;;5028565;28;20057;-74
2023/04/13 02:23:53;;;;;;;9.20;6.50;;;10.60;99.90;;;;;;5020103;28;20460;-74
2023/04/13 02:26:18;;;;;;;7.82;6.03;;;10.60;99.90;;;;;;5031736;28;20042;-74
2023/04/13 02:28:45;;;;;;;8.98;7.00;;;10.50;99.90;;;;;;5032421;28;20025;-74
2023/04/13 02:31:15;;;;;;;7.55;5.88;;;10.50;99.90;;;;;;5029472;28;20034;-73
2023/04/13 02:33:42;;;;;;;8.40;6.03;;;10.50;99.90;;;;;;5014628;28;20041;-73
2023/04/13 02:36:08;;;;;;;8.65;6.38;;;10.50;99.90;;;;;;5019472;28;20037;-73
2023/04/13 02:38:36;;;;;;;8.32;6.35;;;10.50;99.90;;;;;;5042807;28;20164;-74
2023/04/13 02:41:02;;;;;;;8.52;6.30;;;10.50;99.90;;;;;;5029536;28;20033;-73
2023/04/13 02:43:28;;;;;;;8.60;5.82;;;10.50;99.90;;;;;;5017971;28;20727;-73
2023/04/13 02:45:55;;;;;;;9.02;5.68;;;10.40;99.90;;;;;;5025246;28;20041;-73
2023/04/13 02:48:21;;;;;;;9.23;5.95;;;10.40;99.90;;;;;;5020447;28;20034;-74
2023/04/13 02:50:47;;;;;;;8.07;5.53;;;10.40;99.90;;;;;;5013583;28;20033;-73
2023/04/13 02:53:14;;;;;;;8.52;5.53;;;10.40;99.90;;;;;;5025109;28;20033;-74
2023/04/13 02:55:39;;;;;;;8.40;5.75;;;10.40;99.90;;;;;;5014370;28;20093;-73
2023/04/13 02:58:08;;;;;;;9.90;6.68;;;10.40;99.90;;;;;;5037911;28;20120;-73
2023/04/13 03:00:33;;;;;;;8.70;5.50;;;10.40;99.90;;;;;;5013136;28;20600;-73
2023/04/13 03:03:02;;;;;;;8.60;5.80;;;10.30;99.90;;;;;;5013493;28;20116;-73
2023/04/13 03:05:30;;;;;;;7.82;6.35;;;10.30;99.90;;;;;;5015311;28;20045;-73
2023/04/13 03:07:56;;;;;;;7.47;5.53;;;10.30;99.90;;;;;;5019256;28;20113;-73
2023/04/13 03:10:22;;;;;;;7.72;5.10;;;10.30;99.90;;;;;;5037225;28;20029;-74
2023/04/13 03:12:48;;;;;;;9.43;5.70;;;10.20;99.90;;;;;;5019097;28;20040;-71
2023/04/13 03:15:14;;;;;;;9.23;5.70;;;10.20;99.90;;;;;;5026891;28;20045;-71
2023/04/13 03:17:40;;;;;;;6.97;5.50;;;10.20;99.90;;;;;;5020202;28;20034;-71
2023/04/13 03:20:15;;;;;;;8.70;6.00;;;10.20;99.90;;;;;;5030186;28;20044;-71
2023/04/13 03:22:44;;;;;;;8.93;5.65;;;10.20;99.90;;;;;;5015426;28;20029;-71
2023/04/13 03:25:09;;;;;;;8.70;5.55;;;10.10;99.90;;;;;;5028851;28;20021;-71
2023/04/13 03:27:35;;;;;;;7.38;5.35;;;10.10;99.90;;;;;;5021854;28;20037;-71
2023/04/13 03:30:02;;;;;;;8.48;5.50;;;10.10;99.90;;;;;;5027229;28;20022;-71
2023/04/13 03:32:27;;;;;;;8.07;5.32;;;10.10;99.90;;;;;;5022793;28;20041;-71
2023/04/13 03:34:53;;;;;;;8.40;5.30;;;10.10;99.90;;;;;;5026758;28;20108;-71
2023/04/13 03:37:18;;;;;;;8.13;5.47;;;10.00;99.90;;;;;;5031770;28;20117;-71
2023/04/13 03:39:44;;;;;;;6.07;4.32;;;10.00;99.90;;;;;;5019792;28;20044;-71
2023/04/13 03:42:10;;;;;;;7.15;4.70;;;10.00;99.90;;;;;;5014118;28;21984;-71
2023/04/13 03:44:36;;;;;;;7.90;4.72;;;10.00;99.90;;;;;;5019389;28;20148;-71
2023/04/13 03:47:01;;;;;;;5.80;4.05;;;10.00;99.90;;;;;;5014953;28;20065;-71
2023/04/13 03:49:29;;;;;;;6.68;4.35;;;10.00;99.90;;;;;;5015546;28;20095;-71
2023/04/13 03:51:55;;;;;;;7.28;4.38;;;10.00;99.90;;;;;;5029015;28;20041;-71
2023/04/13 03:54:20;;;;;;;5.68;4.05;;;10.00;99.90;;;;;;5022765;28;20038;-71
2023/04/13 03:56:46;;;;;;;6.03;3.83;;;10.00;99.90;;;;;;5018760;28;20036;-71
2023/04/13 03:59:12;;;;;;;9.90;4.15;;;10.00;99.90;;;;;;5030310;28;20793;-71
2023/04/13 04:01:37;;;;;;;6.28;3.88;;;10.00;99.90;;;;;;5014716;28;20030;-71
2023/04/13 04:04:03;;;;;;;8.15;3.88;;;10.00;99.90;;;;;;5029021;28;20466;-71
2023/04/13 04:06:29;;;;;;;10.98;4.93;;;10.00;99.90;;;;;;5011271;28;20034;-71
2023/04/13 04:08:55;;;;;;;6.80;4.00;;;10.00;99.90;;;;;;5028298;28;20029;-71
2023/04/13 04:11:21;;;;;;;5.65;3.90;;;10.00;99.90;;;;;;5034117;28;20029;-73
2023/04/13 04:13:47;;;;;;;6.38;4.47;;;10.00;99.90;;;;;;5025932;28;20482;-73
2023/04/13 04:16:13;;;;;;;6.95;3.92;;;9.90;99.90;;;;;;5029274;28;20130;-73
2023/04/13 04:18:39;;;;;;;7.82;4.25;;;9.90;99.90;;;;;;5029521;28;20061;-73
2023/04/13 04:21:05;;;;;;;5.95;4.05;;;9.90;99.90;;;;;;5026302;28;20044;-71
2023/04/13 04:23:33;;;;;;;8.68;4.10;;;9.90;99.90;;;;;;5020713;28;20105;-72
2023/04/13 04:26:01;;;;;;;6.57;4.38;;;9.90;99.90;;;;;;5032447;28;20507;-72
2023/04/13 04:28:29;;;;;;;7.95;4.93;;;9.90;99.90;;;;;;5012724;28;20022;-71
2023/04/13 04:30:55;;;;;;;7.30;4.43;;;9.90;99.90;;;;;;5029905;28;20387;-71
2023/04/13 04:33:21;;;;;;;6.72;4.75;;;9.80;99.90;;;;;;5012565;28;20030;-71
2023/04/13 04:35:52;;;;;;;7.40;4.53;;;9.90;99.90;;;;;;5023749;28;20099;-72
2023/04/13 04:38:18;;;;;;;8.93;4.53;;;9.80;99.90;;;;;;5016024;28;20030;-71
2023/04/13 04:40:44;;;;;;;7.05;4.65;;;9.80;99.90;;;;;;5014619;28;20065;-71
2023/04/13 04:43:13;;;;;;;7.10;4.40;;;9.80;99.90;;;;;;5014693;28;20180;-71
2023/04/13 04:45:42;;;;;;;8.82;5.03;;;9.80;99.90;;;;;;5015734;28;20083;-70
2023/04/13 04:48:12;;;;;;;9.63;4.97;;;9.80;99.90;;;;;;5020345;28;20029;-70
2023/04/13 04:50:38;;;;;;;7.10;4.90;;;9.80;99.90;;;;;;5015674;28;20029;-71
2023/04/13 04:53:04;;;;;;;7.63;4.55;;;9.80;99.90;;;;;;5025227;28;20226;-72
2023/04/13 04:55:30;;;;;;;8.00;4.85;;;9.80;99.90;;;;;;5027626;28;20026;-72
2023/04/13 04:57:55;;;;;;;9.13;4.65;;;9.80;99.90;;;;;;5032659;28;20030;-72
2023/04/13 05:00:21;;;;;;;10.15;4.82;;;9.80;99.90;;;;;;5036798;28;20041;-72
2023/04/13 05:02:49;;;;;;;7.90;4.88;;;9.80;99.90;;;;;;5029471;28;20045;-71
2023/04/13 05:05:15;;;;;;;9.35;5.20;;;9.80;99.90;;;;;;5017118;28;20045;-72
2023/04/13 05:07:41;;;;;;;9.05;5.68;;;9.80;99.90;;;;;;5012472;28;20482;-72
2023/04/13 05:10:08;;;;;;;9.13;6.00;;;9.80;99.90;;;;;;5027247;28;20025;-71
2023/04/13 05:12:33;;;;;;;8.43;5.72;;;9.80;99.90;;;;;;5030725;28;20033;-71
2023/04/13 05:14:59;;;;;;;8.75;5.43;;;9.80;99.90;;;;;;5024130;28;20072;-71
2023/04/13 05:17:25;;;;;;;8.18;5.55;;;9.80;99.90;;;;;;5021883;28;20130;-72
2023/04/13 05:19:51;;;;;;;7.35;5.70;;;9.80;99.90;;;;;;5024665;28;20548;-71
2023/04/13 05:22:16;;;;;;;8.75;5.65;;;9.80;99.90;;;;;;5025177;28;20030;-71
2023/04/13 05:24:42;;;;;;;8.98;5.63;;;9.80;99.90;;;;;;5012837;28;20033;-72
2023/04/13 05:27:08;;;;;;;8.30;6.00;;;9.80;99.90;;;;;;5038404;28;20132;-71
2023/04/13 05:29:34;;;;;;;9.40;6.22;;;9.80;99.90;;;;;;5016128;28;20060;-72
2023/04/13 05:32:03;;;;;;;9.93;5.95;;;9.90;99.90;;;;;;5020390;28;20033;-71
2023/04/13 05:34:29;;;;;;;9.25;6.78;;;9.90;99.90;;;;;;5021050;28;20025;-71
2023/04/13 05:36:56;;;;;;;9.65;6.35;;;9.90;99.90;;;;;;5034177;28;20402;-71
2023/04/13 05:39:23;;;;;;;12.57;6.38;;;10.00;99.90;;;;;;5023293;28;20109;-72
2023/04/13 05:41:49;;;;;;;9.90;6.53;;;9.90;99.90;;;;;;5016065;28;20116;-72
2023/04/13 05:44:15;;;;;;;10.10;5.68;;;10.00;99.90;;;;;;5022673;28;20152;-72
2023/04/13 05:46:40;;;;;;;10.05;6.60;;;10.00;99.90;;;;;;5021757;28;20033;-72
2023/04/13 05:49:06;;;;;;;10.82;6.53;;;10.00;99.90;;;;;;5027835;28;20037;-72
2023/04/13 05:51:32;;;;;;;9.68;6.05;;;10.00;99.90;;;;;;5015272;28;20508;-72
2023/04/13 05:53:58;;;;;;;10.00;6.60;;;10.00;99.90;;;;;;5021208;28;20054;-72
2023/04/13 05:56:24;;;;;;;13.55;6.32;;;10.10;99.90;;;;;;5016641;28;20060;-73
2023/04/13 05:58:51;;;;;;;12.07;6.95;;;10.10;99.90;;;;;;5038829;28;20413;-72
2023/04/13 06:01:18;;;;;;;11.35;7.18;;;10.10;99.90;;;;;;5032775;28;20045;-72
2023/04/13 06:03:45;;;;;;;9.55;6.07;;;10.20;99.90;;;;;;5035768;28;20490;-75
2023/04/13 06:06:11;;;;;;;9.88;5.40;;;10.20;99.90;;;;;;5023217;28;20036;-73
2023/04/13 06:08:38;;;;;;;8.25;5.40;;;10.20;99.90;;;;;;5020750;28;20065;-73
2023/04/13 06:11:05;;;;;;;8.95;6.18;;;10.30;99.90;;;;;;5025599;28;20034;-73
2023/04/13 06:13:31;;;;;;;7.70;5.82;;;10.30;99.90;;;;;;5028127;28;20029;-72
2023/04/13 06:15:57;;;;;;;8.10;5.72;;;10.30;99.90;;;;;;5021099;28;20972;-72
2023/04/13 06:18:26;;;;;;;9.85;6.55;;;10.30;99.90;;;;;;5033932;28;20385;-72
2023/04/13 06:20:52;;;;;;;8.40;5.22;;;10.40;99.90;;;;;;5018438;28;20041;-72
2023/04/13 06:23:18;;;;;;;7.72;5.50;;;10.40;99.90;;;;;;5020898;28;20018;-72
2023/04/13 06:25:44;;;;;;;7.40;5.60;;;10.40;99.90;;;;;;5034552;28;20060;-72
2023/04/13 06:28:11;;;;;;;8.77;5.82;;;10.40;99.90;;;;;;5021160;28;20049;-73
2023/04/13 06:30:37;;;;;;;8.98;5.72;;;10.50;99.90;;;;;;5032210;28;20108;-72
2023/04/13 06:33:03;;;;;;;9.82;5.90;;;10.50;99.90;;;;;;5027254;28;20788;-72
2023/04/13 06:35:35;;;;;;;8.15;5.75;;;10.50;99.90;;;;;;5014717;28;21100;-72
2023/04/13 06:38:01;;;;;;;11.35;6.53;;;10.50;99.90;;;;;;5016078;28;20389;-72
2023/04/13 06:40:30;;;;;;;9.48;5.88;;;10.60;99.90;;;;;;5023475;28;20033;-72
2023/04/13 06:42:55;;;;;;;8.52;5.85;;;10.60;99.90;;;;;;5021998;28;20051;-72
2023/04/13 06:45:21;;;;;;;8.80;5.53;;;10.60;99.90;;;;;;5032322;28;20021;-73
2023/04/13 06:47:47;;;;;;;10.20;5.47;;;10.70;99.90;;;;;;5026075;28;20474;-73
2023/04/13 06:50:14;;;;;;;6.88;5.05;;;10.70;99.90;;;;;;5021554;28;20084;-72
2023/04/13 06:52:44;;;;;;;7.45;5.35;;;10.80;99.90;;;;;;5017075;28;20032;-72
2023/04/13 06:55:10;;;;;;;7.85;4.82;;;10.80;99.90;;;;;;5041440;28;20485;-72
2023/04/13 06:57:36;;;;;;;6.85;4.60;;;10.90;99.90;;;;;;5017919;28;20043;-73
2023/04/13 07:00:02;;;;;;;7.20;4.95;;;10.90;99.90;;;;;;5014088;28;20356;-76
2023/04/13 07:02:27;;;;;;;9.20;5.28;;;11.00;99.90;;;;;;5021924;28;20044;-69
2023/04/13 07:04:53;;;;;;;7.22;5.13;;;11.10;99.90;;;;;;5019902;28;20617;-70
2023/04/13 07:07:19;;;;;;;7.05;3.97;;;11.20;99.90;;;;;;5024057;28;20814;-69
2023/04/13 07:09:45;;;;;;;6.15;4.03;;;11.30;99.90;;;;;;5029494;28;20030;-69
2023/04/13 07:12:11;;;;;;;8.13;4.07;;;11.30;99.90;;;;;;5031592;28;20025;-69
2023/04/13 07:14:38;;;;;;;8.35;4.00;;;11.30;99.90;;;;;;5014631;28;20022;-69
2023/04/13 07:17:04;;;;;;;6.22;3.88;;;11.30;99.90;;;;;;5030998;28;20416;-70
2023/04/13 07:19:30;;;;;;;6.97;3.92;;;11.30;99.90;;;;;;5017274;28;20030;-71
2023/04/13 07:21:58;;;;;;;7.13;3.80;;;11.30;99.90;;;;;;5021468;28;20037;-69
2023/04/13 07:24:26;;;;;;;7.22;4.60;;;11.40;99.90;;;;;;5028498;28;20041;-69
2023/04/13 07:26:55;;;;;;;7.93;3.42;;;11.40;99.90;;;;;;5034278;28;20121;-70
2023/04/13 07:29:21;;;;;;;4.95;3.40;;;11.40;99.90;;;;;;5021403;28;20030;-68
2023/04/13 07:31:47;;;;;;;6.65;3.83;;;11.40;99.90;;;;;;5037960;28;20058;-71
2023/04/13 07:34:12;;;;;;;5.57;3.63;;;11.50;99.90;;;;;;5023850;28;20116;-70
2023/04/13 07:36:39;;;;;;;4.63;3.00;;;11.50;99.90;;;;;;5025292;28;20474;-70
2023/04/13 07:39:07;;;;;;;7.60;3.53;;;11.50;99.90;;;;;;5028626;28;20104;-70
2023/04/13 07:41:33;;;;;;;5.25;3.70;;;11.60;99.90;;;;;;5021317;28;20068;-71
2023/04/13 07:43:59;;;;;;;6.32;3.65;;;11.60;99.90;;;;;;5018289;28;20026;-70
2023/04/13 07:46:25;;;;;;;4.95;3.38;;;11.60;99.90;;;;;;5028730;28;20095;-70
2023/04/13 07:48:53;;;;;;;6.03;3.70;;;11.70;99.90;;;;;;5019142;28;20507;-70
2023/04/13 07:51:19;;;;;;;7.03;4.05;;;11.80;99.80;;;;;;5036234;28;20036;-69
2023/04/13 07:53:44;;;;;;;5.50;3.33;;;11.90;99.80;;;;;;5013647;28;20030;-69
2023/04/13 07:56:10;;;;;;;7.07;2.90;;;12.00;99.60;;;;;;5018386;28;20114;-70
2023/04/13 07:58:36;;;;;;;9.57;4.25;;;12.10;99.40;;;;;;5012328;28;20041;-69
2023/04/13 08:01:02;;;;;;;6.65;3.35;;;12.10;99.20;;;;;;5012086;28;20108;-70
2023/04/13 08:03:33;;;;;;;6.53;3.92;;;12.10;99.20;;;;;;5023645;28;20057;-70
2023/04/13 08:05:59;;;;;;;4.28;3.08;;;12.20;99.40;;;;;;5024029;28;20029;-70
2023/04/13 08:08:28;;;;;;;5.68;2.92;;;12.30;99.10;;;;;;5021020;28;20033;-71
2023/04/13 08:10:54;;;;;;;4.45;2.60;;;12.30;99.00;;;;;;5019306;28;20043;-70
2023/04/13 08:13:20;;;;;;;4.47;2.88;;;12.40;98.80;;;;;;5012377;28;20108;-71
2023/04/13 08:15:46;;;;;;;4.68;2.63;;;12.50;98.80;;;;;;5022244;28;20025;-70
2023/04/13 08:18:11;;;;;;;6.43;3.17;;;12.60;98.80;;;;;;5035714;28;20275;-70
2023/04/13 08:20:37;;;;;;;4.57;2.60;;;12.70;98.40;;;;;;5026501;28;20057;-70
2023/04/13 08:23:03;;;;;;;4.38;2.40;;;12.70;98.30;;;;;;5029477;28;20030;-70
2023/04/13 08:25:29;;;;;;;3.30;2.65;;;12.80;98.20;;;;;;5024151;28;20029;-69
2023/04/13 08:27:55;;;;;;;3.95;2.22;;;12.80;98.00;;;;;;5029272;28;20033;-70
2023/04/13 08:30:21;;;;;;;3.70;2.42;;;12.90;97.80;;;;;;5022414;28;20045;-69
2023/04/13 08:32:47;;;;;;;3.75;2.55;;;13.00;97.60;;;;;;5020934;28;20029;-70
2023/04/13 08:35:13;;;;;;;4.07;2.53;;;13.00;97.50;;;;;;5015359;28;20029;-70
2023/04/13 08:37:39;;;;;;;7.22;3.10;;;13.00;97.50;;;;;;5012481;28;20409;-70
2023/04/13 08:40:06;;;;;;;5.75;2.33;;;13.10;97.40;;;;;;5038804;28;20032;-70
2023/04/13 08:42:35;;;;;;;3.63;2.10;;;13.20;97.30;;;;;;5022873;28;20056;-69
2023/04/13 08:45:02;;;;;;;3.25;2.15;;;13.30;97.00;;;;;;5037740;28;20025;-69
2023/04/13 08:47:28;;;;;;;3.38;2.00;;;13.40;96.90;;;;;;5018950;28;20050;-70
2023/04/13 08:50:03;;;;;;;2.80;1.77;;;13.40;96.50;;;;;;5022881;28;20036;-70
2023/04/13 08:52:29;;;;;;;3.72;1.85;;;13.50;96.20;;;;;;5013769;28;20088;-69
2023/04/13 08:55:01;;;;;;;2.67;1.45;;;13.60;96.10;;;;;;5011501;28;20034;-70
2023/04/13 08:57:28;;;;;;;4.97;1.60;;;13.60;95.80;;;;;;5013623;28;20066;-69
2023/04/13 08:59:56;;;;;;;3.25;1.70;;;13.70;95.70;;;;;;5015551;28;20599;-69
2023/04/13 09:02:27;;;;;;;2.30;1.50;;;13.70;95.60;;;;;;5014127;28;20037;-69
2023/04/13 09:04:58;;;;;;;3.42;1.70;;;13.80;95.40;;;;;;5012449;28;20504;-69
2023/04/13 09:07:29;;;;;;;4.18;1.33;;;13.80;95.10;;;;;;5015931;28;20159;-70
2023/04/13 09:09:59;;;;;;;2.20;1.30;;;13.80;94.90;;;;;;5014814;28;20077;-71
2023/04/13 09:12:25;;;;;;;3.38;1.60;;;13.80;94.60;;;;;;5023436;28;20029;-70
2023/04/13 09:14:51;;;;;;;3.17;1.40;;;13.90;94.40;;;;;;5031459;28;20053;-70
2023/04/13 09:17:27;;;;;;;2.05;1.20;;;14.00;94.30;;;;;;5028569;28;20485;-70
2023/04/13 09:19:56;;;;;;;3.10;1.33;;;14.10;93.90;;;;;;5020816;28;20037;-70
2023/04/13 09:22:24;;;;;;;2.55;1.45;;;14.10;93.70;;;;;;5015786;28;20025;-70
2023/04/13 09:24:50;;;;;;;4.18;1.40;;;14.20;93.60;;;;;;5021519;28;20026;-70
2023/04/13 09:27:20;;;;;;;4.60;1.50;;;14.20;93.30;;;;;;5017461;28;20037;-70
2023/04/13 09:29:53;;;;;;;3.60;1.40;;;14.30;93.30;;;;;;5015074;28;20041;-71
2023/04/13 09:32:21;;;;;;;3.03;1.45;;;14.20;93.00;;;;;;5022897;28;20026;-70
2023/04/13 09:35:02;;;;;;;3.40;1.42;;;14.30;93.00;;;;;;5023673;28;20065;-70
2023/04/13 09:37:28;;;;;;;3.15;1.40;;;14.30;92.80;;;;;;5028086;28;20508;-71
2023/04/13 09:39:54;;;;;;;4.03;1.58;;;14.30;92.80;;;;;;5027504;28;20037;-69
2023/04/13 09:42:19;;;;;;;2.92;1.67;;;14.30;92.50;;;;;;5015506;28;20445;-70
2023/04/13 09:44:58;;;;;;;3.60;1.60;;;14.40;92.40;;;;;;5017630;28;20518;-70
2023/04/13 09:47:33;;;;;;;3.65;1.55;;;14.50;92.20;;;;;;5014425;28;20401;-69
2023/04/13 09:49:58;;;;;;;3.00;1.60;;;14.60;92.30;;;;;;5029617;28;20056;-70
2023/04/13 09:52:24;;;;;;;4.60;1.92;;;14.70;92.20;;;;;;5031142;28;20466;-70
2023/04/13 09:54:50;;;;;;;1.95;1.10;;;14.80;92.10;;;;;;5020971;28;20030;-70
2023/04/13 09:57:26;;;;;;;2.17;1.15;;;14.90;91.90;;;;;;5028679;28;20508;-71
2023/04/13 09:59:53;;;;;;;4.28;1.63;;;14.90;91.60;;;;;;5021439;28;20046;-69
2023/04/13 10:02:19;;;;;;;2.33;1.20;;;14.90;91.40;;;;;;5019419;28;20155;-68
2023/04/13 10:04:45;;;;;;;2.67;1.30;;;14.90;91.20;;;;;;5015137;28;20065;-68
2023/04/13 10:07:12;;;;;;;3.85;1.20;;;14.90;91.10;;;;;;5014477;28;20026;-69
2023/04/13 10:09:38;;;;;;;4.10;1.20;;;14.90;91.20;;;;;;5015027;28;20084;-69
2023/04/13 10:12:05;;;;;;;4.03;1.20;;;14.90;91.20;;;;;;5023591;28;20041;-69
2023/04/13 10:14:34;;;;;;;2.22;1.27;;;14.90;91.10;;;;;;5013122;28;20064;-69
2023/04/13 10:17:36;;;;;;;3.38;1.63;;;15.00;91.10;;;;;;5028299;28;20045;-69
2023/04/13 10:20:12;;;;;;;2.25;1.33;;;15.00;91.00;;;;;;5019322;28;20017;-70
2023/04/13 10:22:41;;;;;;;1.98;1.33;;;15.10;90.90;;;;;;5029392;28;20025;-69
2023/04/13 10:25:12;;;;;;;2.45;1.33;;;15.10;90.90;;;;;;5033479;28;20055;-69
2023/04/13 10:27:38;;;;;;;2.38;1.25;;;15.20;90.90;;;;;;5029439;28;20488;-69
2023/04/13 10:30:17;;;;;;;1.60;1.15;;;15.30;90.70;;;;;;5022576;28;20037;-69
2023/04/13 10:32:42;;;;;;;3.30;1.77;;;15.30;90.30;;;;;;5017440;28;20033;-69
2023/04/13 10:35:13;;;;;;;2.28;1.20;;;15.30;90.20;;;;;;5017475;28;20026;-69
2023/04/13 10:37:40;;;;;;;4.82;2.67;;;15.30;90.00;;;;;;5014086;28;20143;-69
2023/04/13 10:40:09;;;;;;;3.03;1.70;;;15.30;90.00;;;;;;5015921;28;20029;-69
2023/04/13 10:42:46;;;;;;;5.18;2.55;;;15.40;89.90;;;;;;5014847;28;20496;-69
2023/04/13 10:45:24;;;;;;;3.30;1.80;;;15.40;89.70;;;;;;5023229;28;20029;-69
2023/04/13 10:47:51;;;;;;;2.33;1.55;;;15.60;89.60;;;;;;5021795;28;20056;-69
2023/04/13 10:50:26;;;;;;;2.17;1.30;;;15.60;89.30;;;;;;5024060;28;20062;-69
2023/04/13 10:53:04;;;;;;;4.25;1.40;;;15.70;88.90;;;;;;5025049;28;20516;-69
2023/04/13 10:55:31;;;;;;;2.65;1.25;;;15.70;88.70;;;;;;5020603;28;20374;-69
2023/04/13 10:58:00;;;;;;;2.97;1.25;;;15.80;88.40;;;;;;5031036;28;20056;-69
2023/04/13 11:00:29;;;;;;;3.97;1.70;;;15.90;88.00;;;;;;5019408;28;20537;-68
2023/04/13 11:02:56;;;;;;;2.60;1.00;;;15.90;87.30;;;;;;5014691;28;20481;-68
2023/04/13 11:05:25;;;;;;;2.17;1.17;;;15.90;87.10;;;;;;5016460;28;20026;-69
2023/04/13 11:07:51;;;;;;;2.13;1.10;;;15.90;87.30;;;;;;5012580;28;20026;-69
2023/04/13 11:10:24;;;;;;;2.83;1.20;;;16.00;87.50;;;;;;5019223;28;20462;-68
2023/04/13 11:12:51;;;;;;;4.90;1.70;;;16.10;86.60;;;;;;5028808;28;20061;-68
2023/04/13 11:15:28;;;;;;;2.40;1.10;;;16.10;86.40;;;;;;5019809;28;20587;-69
2023/04/13 11:17:59;;;;;;;3.05;1.23;;;16.20;85.50;;;;;;5024546;28;20049;-71
2023/04/13 11:20:37;;;;;;;3.35;1.30;;;16.20;85.40;;;;;;5015139;28;20032;-70
2023/04/13 11:23:22;;;;;;;4.93;1.60;;;16.20;85.40;;;;;;5014372;28;20083;-70
2023/04/13 11:25:58;;;;;;;3.72;1.40;;;16.20;85.50;;;;;;5020004;28;20029;-71
2023/04/13 11:28:34;;;;;;;1.85;1.30;;;16.20;85.40;;;;;;5013331;28;20030;-71
2023/04/13 11:31:00;;;;;;;3.20;1.48;;;16.20;85.30;;;;;;5013686;28;20041;-71
2023/04/13 11:33:30;;;;;;;2.28;1.52;;;16.20;85.30;;;;;;5016582;28;20022;-71
2023/04/13 11:35:58;;;;;;;2.88;1.30;;;16.30;84.80;;;;;;5013440;28;20453;-72
2023/04/13 11:38:25;;;;;;;3.78;1.73;;;16.30;84.40;;;;;;5016642;28;20130;-72
2023/04/13 11:40:51;;;;;;;3.00;1.63;;;16.30;84.60;;;;;;5021247;28;20026;-73
2023/04/13 11:43:18;;;;;;;1.30;0.80;;;16.30;84.40;;;;;;5022177;28;20476;-72
2023/04/13 11:45:46;;;;;;;3.10;1.27;;;16.30;83.80;;;;;;5023659;28;20024;-72
2023/04/13 11:48:12;;;;;;;2.92;1.50;;;16.30;83.30;;;;;;5027863;28;20038;-72
2023/04/13 11:50:39;;;;;;;1.83;0.88;;;16.30;83.50;;;;;;5041985;28;20030;-73
2023/04/13 11:53:06;;;;;;;3.28;1.30;;;16.40;82.90;;;;;;5013095;28;20088;-72
2023/04/13 11:55:33;;;;;;;2.92;1.10;;;16.50;82.70;;;;;;5017405;28;20025;-72
2023/04/13 11:58:08;;;;;;;2.53;1.55;;;16.50;82.50;;;;;;5011586;28;20091;-72
2023/04/13 12:00:38;;;;;;;2.42;1.50;;;16.60;82.10;;;;;;5012498;28;20050;-72
2023/04/13 12:03:10;;;;;;;3.85;1.30;;;16.70;81.90;;;;;;5010962;28;20398;-72
2023/04/13 12:05:36;;;;;;;3.97;1.60;;;16.70;81.90;;;;;;5014289;28;20651;-72
2023/04/13 12:08:02;;;;;;;3.60;1.33;;;16.70;81.60;;;;;;5014610;28;20116;-72
2023/04/13 12:10:30;;;;;;;3.72;1.52;;;16.70;81.20;;;;;;5022311;28;20026;-72
2023/04/13 12:13:14;;;;;;;2.03;1.20;;;16.80;80.70;;;;;;5023649;28;20021;-72
2023/04/13 12:15:45;;;;;;;1.85;1.45;;;16.90;80.80;;;;;;5012533;28;20022;-71
2023/04/13 12:18:11;;;;;;;2.45;1.20;;;16.90;80.90;;;;;;5024121;28;20061;-71
2023/04/13 12:20:39;;;;;;;2.90;1.40;;;17.00;80.60;;;;;;5022468;28;20029;-71
2023/04/13 12:23:22;;;;;;;2.00;1.20;;;17.00;80.70;;;;;;5012182;28;20112;-71
2023/04/13 12:25:58;;;;;;;3.13;1.30;;;17.00;80.80;;;;;;5018025;28;20069;-71
2023/04/13 12:28:32;;;;;;;2.85;1.50;;;17.10;80.80;;;;;;5021373;28;20083;-71
2023/04/13 12:31:08;;;;;;;2.53;1.13;;;17.10;81.00;;;;;;5022046;28;20076;-72
2023/04/13 12:33:35;;;;;;;3.38;1.15;;;17.20;80.40;;;;;;5016162;28;20061;-72
2023/04/13 12:36:01;;;;;;;3.97;1.42;;;17.20;79.80;;;;;;5014197;28;20048;-72
2023/04/13 12:38:27;;;;;;;2.42;1.25;;;17.20;79.60;;;;;;5017544;28;20029;-72
2023/04/13 12:40:59;;;;;;;3.10;1.30;;;17.10;79.50;;;;;;5028654;28;20099;-72
2023/04/13 12:43:26;;;;;;;4.78;1.52;;;17.10;79.70;;;;;;5026417;28;20392;-72
2023/04/13 12:45:53;;;;;;;3.30;1.70;;;17.10;79.80;;;;;;5015259;28;20022;-71
2023/04/13 12:48:18;;;;;;;4.00;1.73;;;17.10;79.60;;;;;;5012871;28;20525;-71
2023/04/13 12:50:44;;;;;;;2.67;1.50;;;17.10;79.40;;;;;;5026276;28;20065;-72